sensor_id;sensor_type;location;lat;lon;timestamp;P1;durP1;ratioP1;P2;durP2;ratioP2
64018;SDS011;66942;52.138;5.216;2023-05-10T00:00:14;41.6;;;37.31;;
64018;SDS011;66942;52.138;5.216;2023-05-10T00:01:51;41.7;;;37.6;;
64018;SDS011;66942;52.138;5.216;2023-05-10T00:03:27;45.9;;;38.9;;
64018;SDS011;66942;52.138;5.216;2023-05-10T00:06:40;42.8;;;38.21;;
64018;SDS011;66942;52.138;5.216;2023-05-10T00:08:16;57.3;;;39.1;;
64018;SDS011;66942;52.138;5.216;2023-05-10T00:09:52;44.0;;;39.21;;
64018;SDS011;66942;52.138;5.216;2023-05-10T00:13:05;44.0;;;39.21;;
64018;SDS011;66942;52.138;5.216;2023-05-10T00:14:41;38.81;;;34.9;;
64018;SDS011;66942;52.138;5.216;2023-05-10T00:16:17;37.1;;;33.6;;
64018;SDS011;66942;52.138;5.216;2023-05-10T00:17:53;38.9;;;35.0;;
64018;SDS011;66942;52.138;5.216;2023-05-10T00:21:05;48.5;;;43.7;;
64018;SDS011;66942;52.138;5.216;2023-05-10T00:22:41;44.4;;;40.0;;
64018;SDS011;66942;52.138;5.216;2023-05-10T00:24:18;42.1;;;38.0;;
64018;SDS011;66942;52.138;5.216;2023-05-10T00:27:30;43.3;;;38.81;;
64018;SDS011;66942;52.138;5.216;2023-05-10T00:29:06;47.3;;;40.6;;
64018;SDS011;66942;52.138;5.216;2023-05-10T00:30:42;43.2;;;39.0;;
64018;SDS011;66942;52.138;5.216;2023-05-10T00:33:54;42.7;;;38.31;;
64018;SDS011;66942;52.138;5.216;2023-05-10T00:35:31;42.3;;;38.1;;
64018;SDS011;66942;52.138;5.216;2023-05-10T00:37:08;42.2;;;37.9;;
64018;SDS011;66942;52.138;5.216;2023-05-10T00:38:44;39.31;;;35.5;;
64018;SDS011;66942;52.138;5.216;2023-05-10T00:41:56;39.1;;;35.31;;
64018;SDS011;66942;52.138;5.216;2023-05-10T00:43:32;42.5;;;34.81;;
64018;SDS011;66942;52.138;5.216;2023-05-10T00:45:08;49.6;;;39.81;;
64018;SDS011;66942;52.138;5.216;2023-05-10T00:48:20;40.71;;;36.6;;
64018;SDS011;66942;52.138;5.216;2023-05-10T00:49:58;41.7;;;37.5;;
64018;SDS011;66942;52.138;5.216;2023-05-10T00:51:34;49.0;;;38.5;;
64018;SDS011;66942;52.138;5.216;2023-05-10T00:54:46;48.1;;;41.5;;
64018;SDS011;66942;52.138;5.216;2023-05-10T00:56:22;43.6;;;39.21;;
64018;SDS011;66942;52.138;5.216;2023-05-10T00:57:58;43.9;;;39.4;;
64018;SDS011;66942;52.138;5.216;2023-05-10T01:01:11;44.4;;;39.9;;
64018;SDS011;66942;52.138;5.216;2023-05-10T01:02:49;44.1;;;39.6;;
64018;SDS011;66942;52.138;5.216;2023-05-10T01:04:25;42.6;;;38.4;;
64018;SDS011;66942;52.138;5.216;2023-05-10T01:06:01;57.6;;;43.5;;
64018;SDS011;66942;52.138;5.216;2023-05-10T01:09:13;42.2;;;37.0;;
64018;SDS011;66942;52.138;5.216;2023-05-10T01:10:49;52.9;;;43.7;;
64018;SDS011;66942;52.138;5.216;2023-05-10T01:12:25;38.4;;;34.9;;
64018;SDS011;66942;52.138;5.216;2023-05-10T01:15:38;43.3;;;39.0;;
64018;SDS011;66942;52.138;5.216;2023-05-10T01:17:16;49.9;;;42.4;;
64018;SDS011;66942;52.138;5.216;2023-05-10T01:18:53;46.8;;;41.8;;
64018;SDS011;66942;52.138;5.216;2023-05-10T01:22:32;45.3;;;40.71;;
64018;SDS011;66942;52.138;5.216;2023-05-10T01:24:35;52.6;;;44.4;;
64018;SDS011;66942;52.138;5.216;2023-05-10T01:28:08;46.2;;;41.5;;
64018;SDS011;66942;52.138;5.216;2023-05-10T01:30:02;47.1;;;42.2;;
64018;SDS011;66942;52.138;5.216;2023-05-10T01:32:03;47.5;;;42.7;;
64018;SDS011;66942;52.138;5.216;2023-05-10T01:33:52;47.5;;;42.6;;
64018;SDS011;66942;52.138;5.216;2023-05-10T01:35:34;55.0;;;48.0;;
64018;SDS011;66942;52.138;5.216;2023-05-10T01:37:20;59.2;;;50.4;;
64018;SDS011;66942;52.138;5.216;2023-05-10T01:40:48;52.7;;;47.0;;
64018;SDS011;66942;52.138;5.216;2023-05-10T01:42:38;59.0;;;50.5;;
64018;SDS011;66942;52.138;5.216;2023-05-10T01:44:24;59.0;;;50.5;;
64018;SDS011;66942;52.138;5.216;2023-05-10T01:46:10;70.2;;;54.7;;
64018;SDS011;66942;52.138;5.216;2023-05-10T01:47:54;66.8;;;55.9;;
64018;SDS011;66942;52.138;5.216;2023-05-10T01:51:19;69.0;;;57.2;;
64018;SDS011;66942;52.138;5.216;2023-05-10T01:53:00;72.5;;;54.6;;
64018;SDS011;66942;52.138;5.216;2023-05-10T01:54:38;70.3;;;54.7;;
64018;SDS011;66942;52.138;5.216;2023-05-10T01:56:18;65.1;;;53.3;;
64018;SDS011;66942;52.138;5.216;2023-05-10T01:59:40;71.61;;;56.2;;
64018;SDS011;66942;52.138;5.216;2023-05-10T02:01:21;67.1;;;54.6;;
64018;SDS011;66942;52.138;5.216;2023-05-10T02:02:58;74.41;;;58.2;;
64018;SDS011;66942;52.138;5.216;2023-05-10T02:04:39;85.3;;;58.0;;
64018;SDS011;66942;52.138;5.216;2023-05-10T02:07:57;68.0;;;56.1;;
64018;SDS011;66942;52.138;5.216;2023-05-10T02:09:35;72.7;;;55.9;;
64018;SDS011;66942;52.138;5.216;2023-05-10T02:11:14;89.0;;;59.9;;
64018;SDS011;66942;52.138;5.216;2023-05-10T02:12:53;79.11;;;60.0;;
64018;SDS011;66942;52.138;5.216;2023-05-10T02:16:10;69.2;;;56.0;;
64018;SDS011;66942;52.138;5.216;2023-05-10T02:17:49;91.4;;;60.5;;
64018;SDS011;66942;52.138;5.216;2023-05-10T02:19:29;84.6;;;57.9;;
64018;SDS011;66942;52.138;5.216;2023-05-10T02:22:45;74.7;;;57.2;;
64018;SDS011;66942;52.138;5.216;2023-05-10T02:24:24;76.41;;;57.6;;
64018;SDS011;66942;52.138;5.216;2023-05-10T02:26:02;97.9;;;64.0;;
64018;SDS011;66942;52.138;5.216;2023-05-10T02:27:39;88.7;;;58.7;;
64018;SDS011;66942;52.138;5.216;2023-05-10T02:30:55;116.7;;;60.9;;
64018;SDS011;66942;52.138;5.216;2023-05-10T02:32:32;105.3;;;59.9;;
64018;SDS011;66942;52.138;5.216;2023-05-10T02:34:10;119.6;;;63.1;;
64018;SDS011;66942;52.138;5.216;2023-05-10T02:37:26;103.2;;;63.3;;
64018;SDS011;66942;52.138;5.216;2023-05-10T02:39:04;89.8;;;59.1;;
64018;SDS011;66942;52.138;5.216;2023-05-10T02:40:42;90.6;;;58.1;;
64018;SDS011;66942;52.138;5.216;2023-05-10T02:42:22;117.4;;;63.2;;
64018;SDS011;66942;52.138;5.216;2023-05-10T02:45:43;134.1;;;63.6;;
64018;SDS011;66942;52.138;5.216;2023-05-10T02:47:23;101.6;;;64.1;;
64018;SDS011;66942;52.138;5.216;2023-05-10T02:48:59;116.1;;;66.7;;
64018;SDS011;66942;52.138;5.216;2023-05-10T02:50:36;96.1;;;62.6;;
64018;SDS011;66942;52.138;5.216;2023-05-10T02:54:00;94.3;;;60.2;;
64018;SDS011;66942;52.138;5.216;2023-05-10T02:55:57;103.1;;;63.0;;
64018;SDS011;66942;52.138;5.216;2023-05-10T02:57:38;90.9;;;59.7;;
64018;SDS011;66942;52.138;5.216;2023-05-10T02:59:17;104.0;;;63.7;;
64018;SDS011;66942;52.138;5.216;2023-05-10T03:02:29;95.5;;;60.8;;
64018;SDS011;66942;52.138;5.216;2023-05-10T03:04:05;95.2;;;65.8;;
64018;SDS011;66942;52.138;5.216;2023-05-10T03:05:42;94.3;;;63.3;;
64018;SDS011;66942;52.138;5.216;2023-05-10T03:07:19;109.4;;;69.0;;
64018;SDS011;66942;52.138;5.216;2023-05-10T03:10:31;98.7;;;66.5;;
64018;SDS011;66942;52.138;5.216;2023-05-10T03:14:08;112.5;;;69.41;;
64018;SDS011;66942;52.138;5.216;2023-05-10T03:15:56;139.71;;;65.5;;
64018;SDS011;66942;52.138;5.216;2023-05-10T03:19:24;97.8;;;65.2;;
64018;SDS011;66942;52.138;5.216;2023-05-10T03:21:07;129.0;;;71.11;;
64018;SDS011;66942;52.138;5.216;2023-05-10T03:22:47;114.1;;;72.91;;
64018;SDS011;66942;52.138;5.216;2023-05-10T03:24:27;92.1;;;69.61;;
64018;SDS011;66942;52.138;5.216;2023-05-10T03:26:04;90.9;;;64.6;;
64018;SDS011;66942;52.138;5.216;2023-05-10T03:29:20;99.3;;;70.91;;
64018;SDS011;66942;52.138;5.216;2023-05-10T03:30:59;105.7;;;69.5;;
64018;SDS011;66942;52.138;5.216;2023-05-10T03:32:35;95.7;;;68.61;;
64018;SDS011;66942;52.138;5.216;2023-05-10T03:35:47;95.4;;;68.8;;
64018;SDS011;66942;52.138;5.216;2023-05-10T03:37:23;100.6;;;71.2;;
64018;SDS011;66942;52.138;5.216;2023-05-10T03:38:59;90.8;;;66.7;;
64018;SDS011;66942;52.138;5.216;2023-05-10T03:42:11;95.8;;;69.91;;
64018;SDS011;66942;52.138;5.216;2023-05-10T03:43:48;95.1;;;67.3;;
64018;SDS011;66942;52.138;5.216;2023-05-10T03:45:24;93.7;;;66.6;;
64018;SDS011;66942;52.138;5.216;2023-05-10T03:47:00;112.5;;;67.91;;
64018;SDS011;66942;52.138;5.216;2023-05-10T03:50:13;101.6;;;71.2;;
64018;SDS011;66942;52.138;5.216;2023-05-10T03:51:49;103.3;;;69.91;;
64018;SDS011;66942;52.138;5.216;2023-05-10T03:53:25;93.4;;;65.6;;
64018;SDS011;66942;52.138;5.216;2023-05-10T03:56:38;95.9;;;68.3;;
64018;SDS011;66942;52.138;5.216;2023-05-10T03:58:14;139.5;;;72.0;;
64018;SDS011;66942;52.138;5.216;2023-05-10T03:59:51;105.4;;;69.3;;
64018;SDS011;66942;52.138;5.216;2023-05-10T04:03:03;125.2;;;75.7;;
64018;SDS011;66942;52.138;5.216;2023-05-10T04:04:39;98.8;;;70.0;;
64018;SDS011;66942;52.138;5.216;2023-05-10T04:06:15;104.1;;;69.2;;
64018;SDS011;66942;52.138;5.216;2023-05-10T04:13:13;84.7;;;60.8;;
64018;SDS011;66942;52.138;5.216;2023-05-10T04:14:49;94.0;;;64.1;;
64018;SDS011;66942;52.138;5.216;2023-05-10T04:16:25;103.1;;;66.0;;
64018;SDS011;66942;52.138;5.216;2023-05-10T04:19:38;92.7;;;61.5;;
64018;SDS011;66942;52.138;5.216;2023-05-10T04:21:14;87.3;;;61.6;;
64018;SDS011;66942;52.138;5.216;2023-05-10T04:22:50;78.91;;;55.6;;
64018;SDS011;66942;52.138;5.216;2023-05-10T04:26:02;80.5;;;60.3;;
64018;SDS011;66942;52.138;5.216;2023-05-10T04:27:38;87.7;;;63.6;;
64018;SDS011;66942;52.138;5.216;2023-05-10T04:29:14;79.2;;;61.6;;
64018;SDS011;66942;52.138;5.216;2023-05-10T04:32:27;84.7;;;61.1;;
64018;SDS011;66942;52.138;5.216;2023-05-10T04:34:03;81.11;;;61.2;;
64018;SDS011;66942;52.138;5.216;2023-05-10T04:35:39;86.7;;;62.7;;
64018;SDS011;66942;52.138;5.216;2023-05-10T04:37:15;92.8;;;63.6;;
64018;SDS011;66942;52.138;5.216;2023-05-10T04:40:27;90.3;;;63.4;;
64018;SDS011;66942;52.138;5.216;2023-05-10T04:42:03;82.1;;;61.9;;
64018;SDS011;66942;52.138;5.216;2023-05-10T04:43:39;91.8;;;60.7;;
64018;SDS011;66942;52.138;5.216;2023-05-10T04:46:52;77.3;;;60.3;;
64018;SDS011;66942;52.138;5.216;2023-05-10T04:48:28;81.3;;;62.1;;
64018;SDS011;66942;52.138;5.216;2023-05-10T04:50:04;90.0;;;64.41;;
64018;SDS011;66942;52.138;5.216;2023-05-10T04:53:18;83.3;;;61.1;;
64018;SDS011;66942;52.138;5.216;2023-05-10T04:54:54;87.7;;;63.4;;
64018;SDS011;66942;52.138;5.216;2023-05-10T04:56:30;93.6;;;62.3;;
64018;SDS011;66942;52.138;5.216;2023-05-10T04:58:07;85.1;;;62.7;;
64018;SDS011;66942;52.138;5.216;2023-05-10T05:01:19;72.0;;;57.9;;
64018;SDS011;66942;52.138;5.216;2023-05-10T05:02:55;80.41;;;60.7;;
64018;SDS011;66942;52.138;5.216;2023-05-10T05:04:31;81.2;;;61.0;;
64018;SDS011;66942;52.138;5.216;2023-05-10T05:07:43;80.5;;;59.9;;
64018;SDS011;66942;52.138;5.216;2023-05-10T05:09:20;86.6;;;62.9;;
64018;SDS011;66942;52.138;5.216;2023-05-10T05:10:56;92.7;;;63.5;;
64018;SDS011;66942;52.138;5.216;2023-05-10T05:14:08;86.6;;;62.3;;
64018;SDS011;66942;52.138;5.216;2023-05-10T05:15:44;84.0;;;59.9;;
64018;SDS011;66942;52.138;5.216;2023-05-10T05:17:21;94.8;;;62.1;;
64018;SDS011;66942;52.138;5.216;2023-05-10T05:20:37;87.4;;;60.8;;
64018;SDS011;66942;52.138;5.216;2023-05-10T05:22:16;94.4;;;64.6;;
64018;SDS011;66942;52.138;5.216;2023-05-10T05:23:53;96.1;;;63.4;;
64018;SDS011;66942;52.138;5.216;2023-05-10T05:25:31;88.3;;;63.6;;
64018;SDS011;66942;52.138;5.216;2023-05-10T05:28:42;81.2;;;59.3;;
64018;SDS011;66942;52.138;5.216;2023-05-10T05:30:18;79.7;;;59.8;;
64018;SDS011;66942;52.138;5.216;2023-05-10T05:31:54;77.61;;;60.0;;
64018;SDS011;66942;52.138;5.216;2023-05-10T05:35:09;73.2;;;59.4;;
64018;SDS011;66942;52.138;5.216;2023-05-10T05:36:45;66.8;;;55.3;;
64018;SDS011;66942;52.138;5.216;2023-05-10T05:38:22;74.91;;;56.6;;
64018;SDS011;66942;52.138;5.216;2023-05-10T05:39:59;74.2;;;58.7;;
64018;SDS011;66942;52.138;5.216;2023-05-10T05:43:15;69.7;;;55.3;;
64018;SDS011;66942;52.138;5.216;2023-05-10T05:44:53;69.61;;;55.7;;
64018;SDS011;66942;52.138;5.216;2023-05-10T05:46:30;69.0;;;58.2;;
64018;SDS011;66942;52.138;5.216;2023-05-10T05:49:46;65.3;;;53.7;;
64018;SDS011;66942;52.138;5.216;2023-05-10T05:51:24;70.41;;;53.2;;
64018;SDS011;66942;52.138;5.216;2023-05-10T05:53:01;65.1;;;54.0;;
64018;SDS011;66942;52.138;5.216;2023-05-10T05:54:37;62.4;;;52.2;;
64018;SDS011;66942;52.138;5.216;2023-05-10T05:57:52;76.5;;;57.8;;
64018;SDS011;66942;52.138;5.216;2023-05-10T05:59:30;67.7;;;55.7;;
64018;SDS011;66942;52.138;5.216;2023-05-10T06:01:07;66.41;;;53.9;;
64018;SDS011;66942;52.138;5.216;2023-05-10T06:04:23;66.0;;;51.4;;
64018;SDS011;66942;52.138;5.216;2023-05-10T06:06:01;54.9;;;44.6;;
64018;SDS011;66942;52.138;5.216;2023-05-10T06:07:39;59.2;;;47.2;;
64018;SDS011;66942;52.138;5.216;2023-05-10T06:09:16;57.1;;;46.8;;
64018;SDS011;66942;52.138;5.216;2023-05-10T06:12:30;70.11;;;46.9;;
64018;SDS011;66942;52.138;5.216;2023-05-10T06:14:08;60.3;;;45.1;;
64018;SDS011;66942;52.138;5.216;2023-05-10T06:15:45;49.3;;;38.9;;
64018;SDS011;66942;52.138;5.216;2023-05-10T06:19:00;49.0;;;37.81;;
64018;SDS011;66942;52.138;5.216;2023-05-10T06:20:38;42.0;;;36.71;;
64018;SDS011;66942;52.138;5.216;2023-05-10T06:22:17;47.7;;;38.0;;
64018;SDS011;66942;52.138;5.216;2023-05-10T06:23:55;37.71;;;33.71;;
64018;SDS011;66942;52.138;5.216;2023-05-10T06:27:11;35.71;;;32.0;;
64018;SDS011;66942;52.138;5.216;2023-05-10T06:28:49;32.6;;;29.3;;
64018;SDS011;66942;52.138;5.216;2023-05-10T06:30:26;30.7;;;27.5;;
64018;SDS011;66942;52.138;5.216;2023-05-10T06:33:41;30.0;;;27.2;;
64018;SDS011;66942;52.138;5.216;2023-05-10T06:35:19;29.8;;;27.1;;
64018;SDS011;66942;52.138;5.216;2023-05-10T06:36:57;28.3;;;25.6;;
64018;SDS011;66942;52.138;5.216;2023-05-10T06:38:35;27.3;;;24.7;;
64018;SDS011;66942;52.138;5.216;2023-05-10T06:41:51;27.1;;;24.5;;
64018;SDS011;66942;52.138;5.216;2023-05-10T06:43:28;27.0;;;24.6;;
64018;SDS011;66942;52.138;5.216;2023-05-10T06:45:07;25.3;;;22.8;;
64018;SDS011;66942;52.138;5.216;2023-05-10T06:48:21;26.4;;;24.1;;
64018;SDS011;66942;52.138;5.216;2023-05-10T06:49:58;26.9;;;24.3;;
64018;SDS011;66942;52.138;5.216;2023-05-10T06:53:11;27.1;;;24.5;;
64018;SDS011;66942;52.138;5.216;2023-05-10T06:56:26;27.5;;;24.9;;
64018;SDS011;66942;52.138;5.216;2023-05-10T06:58:03;25.5;;;23.0;;
64018;SDS011;66942;52.138;5.216;2023-05-10T06:59:40;26.2;;;23.8;;
64018;SDS011;66942;52.138;5.216;2023-05-10T07:02:56;27.1;;;24.4;;
64018;SDS011;66942;52.138;5.216;2023-05-10T07:04:32;26.4;;;23.9;;
64018;SDS011;66942;52.138;5.216;2023-05-10T07:06:08;26.4;;;23.9;;
64018;SDS011;66942;52.138;5.216;2023-05-10T07:09:23;26.6;;;24.1;;
64018;SDS011;66942;52.138;5.216;2023-05-10T07:11:01;28.0;;;24.6;;
64018;SDS011;66942;52.138;5.216;2023-05-10T07:12:40;26.7;;;24.2;;
64018;SDS011;66942;52.138;5.216;2023-05-10T07:14:18;27.0;;;24.3;;
64018;SDS011;66942;52.138;5.216;2023-05-10T07:17:33;26.2;;;23.7;;
64018;SDS011;66942;52.138;5.216;2023-05-10T07:19:11;26.4;;;24.0;;
64018;SDS011;66942;52.138;5.216;2023-05-10T07:20:48;25.0;;;22.7;;
64018;SDS011;66942;52.138;5.216;2023-05-10T07:24:04;25.2;;;22.9;;
64018;SDS011;66942;52.138;5.216;2023-05-10T07:25:41;24.3;;;22.2;;
64018;SDS011;66942;52.138;5.216;2023-05-10T07:27:19;24.0;;;21.8;;
64018;SDS011;66942;52.138;5.216;2023-05-10T07:28:56;23.2;;;21.2;;
64018;SDS011;66942;52.138;5.216;2023-05-10T07:32:11;24.1;;;22.0;;
64018;SDS011;66942;52.138;5.216;2023-05-10T07:33:47;25.3;;;22.9;;
64018;SDS011;66942;52.138;5.216;2023-05-10T07:35:25;24.9;;;22.6;;
64018;SDS011;66942;52.138;5.216;2023-05-10T07:38:40;24.7;;;22.5;;
64018;SDS011;66942;52.138;5.216;2023-05-10T07:40:18;23.3;;;21.3;;
64018;SDS011;66942;52.138;5.216;2023-05-10T07:41:55;23.5;;;21.4;;
64018;SDS011;66942;52.138;5.216;2023-05-10T07:43:33;23.2;;;21.2;;
64018;SDS011;66942;52.138;5.216;2023-05-10T07:46:48;24.2;;;22.1;;
64018;SDS011;66942;52.138;5.216;2023-05-10T07:48:26;24.1;;;21.8;;
64018;SDS011;66942;52.138;5.216;2023-05-10T07:50:03;22.8;;;20.8;;
64018;SDS011;66942;52.138;5.216;2023-05-10T07:53:18;23.4;;;21.4;;
64018;SDS011;66942;52.138;5.216;2023-05-10T07:54:55;22.1;;;20.11;;
64018;SDS011;66942;52.138;5.216;2023-05-10T07:56:32;23.8;;;21.7;;
64018;SDS011;66942;52.138;5.216;2023-05-10T07:58:09;22.3;;;20.2;;
64018;SDS011;66942;52.138;5.216;2023-05-10T08:01:24;20.7;;;18.91;;
64018;SDS011;66942;52.138;5.216;2023-05-10T08:03:02;21.7;;;19.7;;
64018;SDS011;66942;52.138;5.216;2023-05-10T08:04:39;21.9;;;20.11;;
64018;SDS011;66942;52.138;5.216;2023-05-10T08:07:55;22.7;;;20.7;;
64018;SDS011;66942;52.138;5.216;2023-05-10T08:09:33;22.5;;;20.3;;
64018;SDS011;66942;52.138;5.216;2023-05-10T08:11:10;22.7;;;20.8;;
64018;SDS011;66942;52.138;5.216;2023-05-10T08:12:48;22.0;;;20.0;;
64018;SDS011;66942;52.138;5.216;2023-05-10T08:16:04;20.8;;;19.0;;
64018;SDS011;66942;52.138;5.216;2023-05-10T08:17:42;21.1;;;19.2;;
64018;SDS011;66942;52.138;5.216;2023-05-10T08:19:20;20.2;;;18.5;;
64018;SDS011;66942;52.138;5.216;2023-05-10T08:22:35;20.7;;;18.91;;
64018;SDS011;66942;52.138;5.216;2023-05-10T08:24:12;21.2;;;19.3;;
64018;SDS011;66942;52.138;5.216;2023-05-10T08:25:50;20.9;;;19.2;;
64018;SDS011;66942;52.138;5.216;2023-05-10T08:27:26;22.6;;;20.6;;
64018;SDS011;66942;52.138;5.216;2023-05-10T08:30:40;22.7;;;20.6;;
64018;SDS011;66942;52.138;5.216;2023-05-10T08:32:18;20.11;;;18.3;;
64018;SDS011;66942;52.138;5.216;2023-05-10T08:33:55;22.1;;;20.11;;
64018;SDS011;66942;52.138;5.216;2023-05-10T08:37:11;22.4;;;20.5;;
64018;SDS011;66942;52.138;5.216;2023-05-10T08:38:49;23.3;;;21.2;;
64018;SDS011;66942;52.138;5.216;2023-05-10T08:40:28;22.6;;;20.6;;
64018;SDS011;66942;52.138;5.216;2023-05-10T08:42:06;22.6;;;20.5;;
64018;SDS011;66942;52.138;5.216;2023-05-10T08:45:25;22.2;;;20.3;;
64018;SDS011;66942;52.138;5.216;2023-05-10T08:47:08;20.6;;;19.0;;
64018;SDS011;66942;52.138;5.216;2023-05-10T08:48:48;21.0;;;19.41;;
64018;SDS011;66942;52.138;5.216;2023-05-10T08:50:26;22.8;;;21.0;;
64018;SDS011;66942;52.138;5.216;2023-05-10T08:53:44;22.2;;;20.3;;
64018;SDS011;66942;52.138;5.216;2023-05-10T08:55:22;21.5;;;19.5;;
64018;SDS011;66942;52.138;5.216;2023-05-10T08:57:00;20.8;;;19.3;;
64018;SDS011;66942;52.138;5.216;2023-05-10T09:00:15;21.9;;;20.11;;
64018;SDS011;66942;52.138;5.216;2023-05-10T09:01:55;22.1;;;20.3;;
64018;SDS011;66942;52.138;5.216;2023-05-10T09:03:34;21.0;;;19.3;;
64018;SDS011;66942;52.138;5.216;2023-05-10T09:05:12;20.41;;;18.7;;
64018;SDS011;66942;52.138;5.216;2023-05-10T09:08:26;19.91;;;18.3;;
64018;SDS011;66942;52.138;5.216;2023-05-10T09:10:04;19.41;;;17.91;;
64018;SDS011;66942;52.138;5.216;2023-05-10T09:11:44;19.61;;;18.0;;
64018;SDS011;66942;52.138;5.216;2023-05-10T09:15:00;19.61;;;18.0;;
64018;SDS011;66942;52.138;5.216;2023-05-10T09:16:39;18.0;;;16.61;;
64018;SDS011;66942;52.138;5.216;2023-05-10T09:18:18;17.61;;;16.2;;
64018;SDS011;66942;52.138;5.216;2023-05-10T09:19:57;18.61;;;17.11;;
64018;SDS011;66942;52.138;5.216;2023-05-10T09:23:13;17.61;;;16.11;;
64018;SDS011;66942;52.138;5.216;2023-05-10T09:25:03;18.3;;;16.5;;
64018;SDS011;66942;52.138;5.216;2023-05-10T09:26:45;18.2;;;16.7;;
64018;SDS011;66942;52.138;5.216;2023-05-10T09:28:24;17.91;;;16.5;;
64018;SDS011;66942;52.138;5.216;2023-05-10T09:31:44;18.41;;;16.8;;
64018;SDS011;66942;52.138;5.216;2023-05-10T09:33:23;18.91;;;17.3;;
64018;SDS011;66942;52.138;5.216;2023-05-10T09:35:05;19.5;;;17.91;;
64018;SDS011;66942;52.138;5.216;2023-05-10T09:36:52;18.8;;;17.2;;
64018;SDS011;66942;52.138;5.216;2023-05-10T09:38:33;19.2;;;17.7;;
64018;SDS011;66942;52.138;5.216;2023-05-10T09:42:03;17.2;;;15.8;;
64018;SDS011;66942;52.138;5.216;2023-05-10T09:43:42;19.61;;;18.0;;
64018;SDS011;66942;52.138;5.216;2023-05-10T09:45:18;17.7;;;16.3;;
64018;SDS011;66942;52.138;5.216;2023-05-10T09:46:57;19.0;;;17.61;;
64018;SDS011;66942;52.138;5.216;2023-05-10T09:50:19;18.5;;;16.9;;
64018;SDS011;66942;52.138;5.216;2023-05-10T09:51:59;20.41;;;18.61;;
64018;SDS011;66942;52.138;5.216;2023-05-10T09:53:38;18.7;;;17.3;;
64018;SDS011;66942;52.138;5.216;2023-05-10T09:55:16;19.2;;;17.61;;
64018;SDS011;66942;52.138;5.216;2023-05-10T09:58:34;18.2;;;16.7;;
64018;SDS011;66942;52.138;5.216;2023-05-10T10:00:16;16.3;;;14.9;;
64018;SDS011;66942;52.138;5.216;2023-05-10T10:01:56;15.5;;;14.3;;
64018;SDS011;66942;52.138;5.216;2023-05-10T10:03:40;15.3;;;14.1;;
64018;SDS011;66942;52.138;5.216;2023-05-10T10:06:58;14.4;;;13.3;;
64018;SDS011;66942;52.138;5.216;2023-05-10T10:08:36;14.2;;;13.2;;
64018;SDS011;66942;52.138;5.216;2023-05-10T10:10:15;13.6;;;12.5;;
64018;SDS011;66942;52.138;5.216;2023-05-10T10:13:31;12.6;;;11.8;;
64018;SDS011;66942;52.138;5.216;2023-05-10T10:15:09;12.3;;;11.5;;
64018;SDS011;66942;52.138;5.216;2023-05-10T10:16:47;13.4;;;12.4;;
64018;SDS011;66942;52.138;5.216;2023-05-10T10:18:26;13.0;;;12.1;;
64018;SDS011;66942;52.138;5.216;2023-05-10T10:21:42;12.6;;;11.7;;
64018;SDS011;66942;52.138;5.216;2023-05-10T10:23:20;11.9;;;10.9;;
64018;SDS011;66942;52.138;5.216;2023-05-10T10:24:58;11.1;;;10.21;;
64018;SDS011;66942;52.138;5.216;2023-05-10T10:26:36;10.7;;;9.9;;
64018;SDS011;66942;52.138;5.216;2023-05-10T10:30:05;10.9;;;10.21;;
64018;SDS011;66942;52.138;5.216;2023-05-10T10:31:55;10.4;;;9.71;;
64018;SDS011;66942;52.138;5.216;2023-05-10T10:33:47;10.4;;;9.71;;
64018;SDS011;66942;52.138;5.216;2023-05-10T10:35:36;9.9;;;9.21;;
64018;SDS011;66942;52.138;5.216;2023-05-10T10:37:14;8.0;;;7.4;;
64018;SDS011;66942;52.138;5.216;2023-05-10T10:40:33;8.4;;;7.6;;
64018;SDS011;66942;52.138;5.216;2023-05-10T10:42:11;8.9;;;8.1;;
64018;SDS011;66942;52.138;5.216;2023-05-10T10:43:48;8.6;;;8.0;;
64018;SDS011;66942;52.138;5.216;2023-05-10T10:45:26;8.71;;;8.0;;
64018;SDS011;66942;52.138;5.216;2023-05-10T10:48:47;8.71;;;8.1;;
64018;SDS011;66942;52.138;5.216;2023-05-10T10:50:25;8.71;;;8.0;;
64018;SDS011;66942;52.138;5.216;2023-05-10T10:52:21;8.31;;;7.7;;
64018;SDS011;66942;52.138;5.216;2023-05-10T10:54:08;8.81;;;8.2;;
64018;SDS011;66942;52.138;5.216;2023-05-10T10:57:25;9.5;;;8.81;;
64018;SDS011;66942;52.138;5.216;2023-05-10T10:59:03;8.4;;;7.8;;
64018;SDS011;66942;52.138;5.216;2023-05-10T11:00:39;9.0;;;8.4;;
64018;SDS011;66942;52.138;5.216;2023-05-10T11:02:48;8.81;;;8.1;;
64018;SDS011;66942;52.138;5.216;2023-05-10T11:04:26;8.31;;;7.8;;
64018;SDS011;66942;52.138;5.216;2023-05-10T11:07:45;7.9;;;7.3;;
64018;SDS011;66942;52.138;5.216;2023-05-10T11:09:26;7.3;;;6.6;;
64018;SDS011;66942;52.138;5.216;2023-05-10T11:11:03;7.5;;;6.9;;
64018;SDS011;66942;52.138;5.216;2023-05-10T11:12:50;8.81;;;8.0;;
64018;SDS011;66942;52.138;5.216;2023-05-10T11:16:11;8.31;;;7.7;;
64018;SDS011;66942;52.138;5.216;2023-05-10T11:17:50;8.9;;;7.7;;
64018;SDS011;66942;52.138;5.216;2023-05-10T11:19:27;7.2;;;6.7;;
64018;SDS011;66942;52.138;5.216;2023-05-10T11:21:03;7.1;;;6.6;;
64018;SDS011;66942;52.138;5.216;2023-05-10T11:24:31;7.6;;;7.0;;
64018;SDS011;66942;52.138;5.216;2023-05-10T11:26:07;8.2;;;7.6;;
64018;SDS011;66942;52.138;5.216;2023-05-10T11:27:44;7.7;;;7.2;;
64018;SDS011;66942;52.138;5.216;2023-05-10T11:29:23;7.7;;;7.2;;
64018;SDS011;66942;52.138;5.216;2023-05-10T11:32:36;7.8;;;7.2;;
64018;SDS011;66942;52.138;5.216;2023-05-10T11:34:22;8.1;;;7.6;;
64018;SDS011;66942;52.138;5.216;2023-05-10T11:36:00;8.1;;;7.5;;
64018;SDS011;66942;52.138;5.216;2023-05-10T11:39:12;7.4;;;6.8;;
64018;SDS011;66942;52.138;5.216;2023-05-10T11:40:50;6.8;;;6.4;;
64018;SDS011;66942;52.138;5.216;2023-05-10T11:42:27;7.0;;;6.5;;
64018;SDS011;66942;52.138;5.216;2023-05-10T11:44:04;9.31;;;8.0;;
64018;SDS011;66942;52.138;5.216;2023-05-10T11:47:18;8.31;;;7.6;;
64018;SDS011;66942;52.138;5.216;2023-05-10T11:48:57;7.8;;;7.3;;
64018;SDS011;66942;52.138;5.216;2023-05-10T11:50:34;7.2;;;6.7;;
64018;SDS011;66942;52.138;5.216;2023-05-10T11:53:46;8.81;;;8.2;;
64018;SDS011;66942;52.138;5.216;2023-05-10T11:55:25;8.0;;;7.3;;
64018;SDS011;66942;52.138;5.216;2023-05-10T11:57:01;9.0;;;8.1;;
64018;SDS011;66942;52.138;5.216;2023-05-10T11:58:37;7.1;;;6.5;;
64018;SDS011;66942;52.138;5.216;2023-05-10T12:01:51;6.2;;;5.8;;
64018;SDS011;66942;52.138;5.216;2023-05-10T12:03:27;7.1;;;6.5;;
64018;SDS011;66942;52.138;5.216;2023-05-10T12:05:05;6.3;;;5.8;;
64018;SDS011;66942;52.138;5.216;2023-05-10T12:08:20;6.4;;;6.0;;
64018;SDS011;66942;52.138;5.216;2023-05-10T12:10:05;6.0;;;5.6;;
64018;SDS011;66942;52.138;5.216;2023-05-10T12:11:43;5.0;;;4.61;;
64018;SDS011;66942;52.138;5.216;2023-05-10T12:13:20;4.7;;;4.41;;
64018;SDS011;66942;52.138;5.216;2023-05-10T12:16:32;5.5;;;5.0;;
64018;SDS011;66942;52.138;5.216;2023-05-10T12:18:09;5.2;;;4.8;;
64018;SDS011;66942;52.138;5.216;2023-05-10T12:19:46;5.2;;;4.8;;
64018;SDS011;66942;52.138;5.216;2023-05-10T12:22:58;4.91;;;4.61;;
64018;SDS011;66942;52.138;5.216;2023-05-10T12:24:34;5.2;;;4.8;;
64018;SDS011;66942;52.138;5.216;2023-05-10T12:26:11;4.8;;;4.41;;
64018;SDS011;66942;52.138;5.216;2023-05-10T12:29:30;4.91;;;4.5;;
64018;SDS011;66942;52.138;5.216;2023-05-10T12:31:06;5.11;;;4.61;;
64018;SDS011;66942;52.138;5.216;2023-05-10T12:32:43;5.4;;;5.0;;
64018;SDS011;66942;52.138;5.216;2023-05-10T12:34:23;5.11;;;4.7;;
64018;SDS011;66942;52.138;5.216;2023-05-10T12:37:37;5.6;;;5.2;;
64018;SDS011;66942;52.138;5.216;2023-05-10T12:39:14;5.4;;;5.0;;
64018;SDS011;66942;52.138;5.216;2023-05-10T12:40:50;5.9;;;5.5;;
64018;SDS011;66942;52.138;5.216;2023-05-10T12:44:02;6.2;;;5.7;;
64018;SDS011;66942;52.138;5.216;2023-05-10T12:45:38;5.4;;;5.0;;